Time;durP1;ratioP1;P1;durP2;ratioP2;P2;SDS_P1;SDS_P2;PMS_P1;PMS_P2;Temp;Humidity;BMP_temperature;BMP_pressure;BME280_temperature;BME280_humidity;BME280_pressure;Samples;Min_cycle;Max_cycle;Signal;HPM_P1;HPM_P2
2023/03/29 00:00:42;;;;;;;2.55;1.13;;;;;;;32.89;29.92;99242.16;7393168;19;20054;-80
2023/03/29 00:03:09;;;;;;;1.95;0.65;;;;;;;32.24;30.26;99236.66;7393924;19;20017;-80
2023/03/29 00:05:39;;;;;;;0.95;0.68;;;;;;;31.93;30.67;99225.66;7395129;19;20015;-80
2023/03/29 00:08:07;;;;;;;0.60;0.60;;;;;;;31.73;30.94;99239.00;7395026;19;20029;-80
2023/03/29 00:10:34;;;;;;;2.28;0.63;;;;;;;32.15;30.70;99232.59;7395411;19;20033;-80
2023/03/29 00:13:01;;;;;;;2.55;0.75;;;;;;;33.11;29.61;99233.09;7394006;19;20021;-80
2023/03/29 00:15:27;;;;;;;1.08;0.50;;;;;;;33.44;29.60;99231.06;7392874;19;20010;-80
2023/03/29 00:17:53;;;;;;;0.77;0.73;;;;;;;33.77;29.16;99233.31;7398063;19;20011;-80
2023/03/29 00:20:19;;;;;;;4.03;1.45;;;;;;;33.45;29.56;99223.16;7395126;19;20468;-80
2023/03/29 00:22:45;;;;;;;1.58;1.48;;;;;;;33.39;29.45;99222.88;7394746;19;20018;-80
2023/03/29 00:25:12;;;;;;;1.67;1.02;;;;;;;33.55;29.35;99224.38;7390320;19;20021;-81
2023/03/29 00:27:39;;;;;;;1.05;0.73;;;;;;;33.34;29.68;99221.19;7394200;19;20026;-80
2023/03/29 00:30:07;;;;;;;1.05;0.88;;;;;;;33.39;29.65;99217.84;7394238;19;20484;-80
2023/03/29 00:32:33;;;;;;;1.75;1.10;;;;;;;33.15;29.93;99236.91;7392724;19;20022;-80
2023/03/29 00:35:00;;;;;;;3.20;0.57;;;;;;;33.14;30.44;99226.00;7396053;19;20042;-80
2023/03/29 00:37:29;;;;;;;1.50;0.52;;;;;;;32.94;30.24;99225.03;7392658;19;20077;-80
2023/03/29 00:39:56;;;;;;;3.60;0.57;;;;;;;31.96;31.23;99227.28;7391632;19;20125;-80
2023/03/29 00:42:24;;;;;;;1.00;0.45;;;;;;;31.84;31.19;99226.59;7391142;19;20030;-80
2023/03/29 00:45:00;;;;;;;1.10;0.80;;;;;;;31.84;31.25;99215.09;7393861;19;20023;-81
2023/03/29 00:47:37;;;;;;;0.68;0.30;;;;;;;31.53;31.52;99223.50;7396427;19;20518;-81
2023/03/29 00:50:08;;;;;;;3.15;1.13;;;;;;;32.73;30.21;99218.28;7391773;19;20022;-80
2023/03/29 00:52:36;;;;;;;0.88;0.88;;;;;;;32.63;30.18;99212.03;7392840;19;20017;-80
2023/03/29 00:55:08;;;;;;;2.25;1.33;;;;;;;32.47;29.48;99213.31;7395092;19;20477;-80
2023/03/29 00:57:37;;;;;;;2.67;0.80;;;;;;;32.58;29.33;99213.19;7393093;19;20037;-80
2023/03/29 01:00:08;;;;;;;0.60;0.60;;;;;;;32.32;29.12;99208.22;7393302;19;20570;-80
2023/03/29 01:02:38;;;;;;;;;;;;;;;33.07;28.53;99209.81;7393727;19;20006;-80
2023/03/29 01:05:14;;;;;;;1.67;1.10;;;;;;;32.99;28.48;99215.16;7395221;19;20345;-80
2023/03/29 01:07:46;;;;;;;0.63;0.50;;;;;;;32.88;28.40;99229.09;7391659;19;20078;-80
2023/03/29 01:10:26;;;;;;;0.63;0.63;;;;;;;32.67;28.60;99231.66;7389827;19;20018;-80
2023/03/29 01:13:01;;;;;;;0.38;0.32;;;;;;;32.31;28.69;99224.78;7392792;19;20350;-80
2023/03/29 01:15:28;;;;;;;0.60;0.60;;;;;;;32.20;28.66;99231.44;7389865;19;20014;-80
2023/03/29 01:17:56;;;;;;;0.50;0.50;;;;;;;32.28;28.65;99223.19;7394439;19;20014;-80
2023/03/29 01:20:32;;;;;;;0.63;0.63;;;;;;;32.20;29.00;99219.16;7390722;19;20025;-80
2023/03/29 01:23:46;;;;;;;0.73;0.73;;;;;;;31.69;29.55;99224.38;7390368;19;20358;-80
2023/03/29 01:26:34;;;;;;;1.13;0.95;;;;;;;30.01;31.11;99221.94;7390311;19;20476;-80
2023/03/29 01:29:08;;;;;;;2.15;1.95;;;;;;;29.95;31.40;99220.19;7392727;19;20497;-81
2023/03/29 01:31:44;;;;;;;0.88;0.50;;;;;;;31.61;29.64;99226.81;7391719;19;20045;-80
2023/03/29 01:34:21;;;;;;;0.38;0.38;;;;;;;32.61;28.99;99216.94;7392484;19;20690;-80
2023/03/29 01:36:59;;;;;;;3.22;0.80;;;;;;;32.57;29.25;99211.69;7391898;19;20015;-81
2023/03/29 01:39:26;;;;;;;3.95;1.02;;;;;;;33.00;28.97;99205.16;7394759;19;20014;-81
2023/03/29 01:42:13;;;;;;;0.55;0.55;;;;;;;33.12;28.93;99206.47;7390124;19;20018;-80
2023/03/29 01:44:51;;;;;;;1.15;1.05;;;;;;;33.40;28.65;99202.00;7393808;19;20014;-80
2023/03/29 01:47:17;;;;;;;1.88;0.45;;;;;;;33.43;28.69;99205.72;7392831;19;20036;-80
2023/03/29 01:49:49;;;;;;;0.80;0.70;;;;;;;33.48;28.71;99204.53;7390375;19;20018;-80
2023/03/29 01:52:24;;;;;;;0.40;0.40;;;;;;;33.28;28.87;99194.94;7388916;19;20018;-81
2023/03/29 01:55:01;;;;;;;0.80;0.70;;;;;;;33.26;28.98;99186.19;7394188;19;20018;-80
2023/03/29 01:57:30;;;;;;;1.27;1.10;;;;;;;33.53;28.56;99183.88;7391378;19;20026;-81
2023/03/29 01:59:57;;;;;;;3.03;0.98;;;;;;;33.55;28.37;99192.63;7389897;19;20018;-81
2023/03/29 02:02:27;;;;;;;0.98;0.90;;;;;;;33.34;28.64;99181.53;7390812;19;20105;-80
2023/03/29 02:04:56;;;;;;;1.27;0.70;;;;;;;33.29;29.40;99173.31;7393838;19;20022;-80
2023/03/29 02:07:29;;;;;;;1.90;0.63;;;;;;;33.27;29.09;99181.88;7388949;19;20021;-80
2023/03/29 02:09:57;;;;;;;0.40;0.40;;;;;;;33.30;29.20;99186.34;7386566;19;20025;-81
2023/03/29 02:12:23;;;;;;;1.88;0.73;;;;;;;33.44;29.22;99173.31;7391095;19;20103;-80
2023/03/29 02:14:50;;;;;;;1.50;1.25;;;;;;;33.63;28.60;99172.75;7393938;19;20019;-80
2023/03/29 02:17:21;;;;;;;0.60;0.43;;;;;;;33.26;29.27;99168.84;7394147;19;20014;-80
2023/03/29 02:19:53;;;;;;;2.05;0.52;;;;;;;33.14;29.37;99168.28;7388450;19;20018;-80
2023/03/29 02:22:29;;;;;;;1.10;0.88;;;;;;;33.19;29.22;99172.84;7393946;19;20049;-80
2023/03/29 02:24:57;;;;;;;4.13;0.70;;;;;;;33.20;29.31;99171.47;7400795;19;20019;-80
2023/03/29 02:27:28;;;;;;;1.33;0.73;;;;;;;33.41;29.10;99160.19;7397036;19;20396;-80
2023/03/29 02:29:55;;;;;;;2.22;1.00;;;;;;;33.60;29.11;99174.06;7399454;19;20011;-80
2023/03/29 02:32:32;;;;;;;1.27;1.00;;;;;;;33.43;29.93;99168.94;7398455;19;20038;-80
2023/03/29 02:35:14;;;;;;;4.18;1.23;;;;;;;33.75;29.47;99166.03;7398097;19;20025;-80
2023/03/29 02:37:48;;;;;;;0.43;0.40;;;;;;;34.03;29.19;99161.50;7396614;19;20366;-80
2023/03/29 02:40:15;;;;;;;7.43;1.55;;;;;;;33.48;29.39;99161.22;7397641;19;20023;-80
2023/03/29 02:42:44;;;;;;;5.70;0.85;;;;;;;33.46;29.77;99158.97;7396013;19;20473;-80
2023/03/29 02:45:14;;;;;;;4.32;0.77;;;;;;;33.74;29.73;99164.56;7392897;19;20014;-80
2023/03/29 02:47:47;;;;;;;0.47;0.47;;;;;;;33.89;29.51;99158.75;7401114;19;20010;-80
2023/03/29 02:50:13;;;;;;;0.80;0.35;;;;;;;34.26;29.31;99164.66;7395397;19;20275;-80
2023/03/29 02:52:45;;;;;;;3.22;0.63;;;;;;;34.18;28.96;99155.66;7397702;19;20029;-80
2023/03/29 02:55:16;;;;;;;0.85;0.85;;;;;;;33.98;29.34;99157.66;7393342;19;20014;-80
2023/03/29 02:57:42;;;;;;;0.57;0.57;;;;;;;33.88;29.61;99154.34;7396066;19;20023;-80
2023/03/29 03:00:10;;;;;;;1.70;0.80;;;;;;;33.91;29.63;99155.94;7395943;19;20024;-79
2023/03/29 03:02:37;;;;;;;0.22;0.22;;;;;;;33.83;29.64;99143.28;7397833;19;20056;-80
2023/03/29 03:05:05;;;;;;;4.05;0.70;;;;;;;34.06;29.60;99149.38;7397913;19;20394;-80
2023/03/29 03:07:32;;;;;;;0.70;0.70;;;;;;;25.54;37.00;99163.16;7396412;19;20011;-80
2023/03/29 03:09:58;;;;;;;1.35;1.05;;;;;;;16.79;88.50;99174.34;7395551;19;20015;-80
2023/03/29 03:12:25;;;;;;;1.75;0.68;;;;;;;14.68;100.00;99171.06;7394302;19;20010;-80
2023/03/29 03:14:52;;;;;;;0.88;0.55;;;;;;;13.87;100.00;99170.94;7396404;19;20014;-80
2023/03/29 03:17:18;;;;;;;0.52;0.43;;;;;;;12.47;100.00;99165.97;7398008;19;20035;-80
2023/03/29 03:19:46;;;;;;;3.30;1.42;;;;;;;29.04;52.37;99144.19;7393971;19;20354;-80
2023/03/29 03:22:12;;;;;;;0.77;0.77;;;;;;;31.56;41.44;99135.84;7393960;19;20014;-80
2023/03/29 03:24:38;;;;;;;1.55;0.98;;;;;;;31.85;39.26;99138.81;7396058;19;20018;-80
2023/03/29 03:27:05;;;;;;;6.38;0.93;;;;;;;32.54;37.59;99143.81;7395200;19;20018;-80
2023/03/29 03:29:31;;;;;;;5.38;1.10;;;;;;;32.52;36.63;99140.06;7395035;19;20361;-80
2023/03/29 03:31:59;;;;;;;0.85;0.75;;;;;;;32.73;35.47;99131.75;7393837;19;20026;-80
2023/03/29 03:34:44;;;;;;;0.95;0.93;;;;;;;33.54;34.35;99123.97;7398204;19;20007;-80
2023/03/29 03:37:11;;;;;;;5.15;1.15;;;;;;;33.47;33.62;99114.25;7394741;19;20011;-80
2023/03/29 03:39:38;;;;;;;0.47;0.47;;;;;;;32.89;34.52;99108.69;7398616;19;20014;-80
2023/03/29 03:42:07;;;;;;;0.80;0.80;;;;;;;33.33;33.61;99104.22;7393905;19;20011;-80
2023/03/29 03:44:34;;;;;;;1.00;0.50;;;;;;;32.97;33.91;99097.50;7396590;19;20015;-80
2023/03/29 03:47:20;;;;;;;0.43;0.43;;;;;;;33.03;33.72;99088.44;7398637;19;20029;-80
2023/03/29 03:49:47;;;;;;;1.42;0.73;;;;;;;32.97;33.45;99079.44;7396007;19;20469;-80
2023/03/29 03:52:14;;;;;;;0.80;0.57;;;;;;;32.97;33.44;99085.22;7392241;19;20018;-80
2023/03/29 03:54:40;;;;;;;1.13;1.02;;;;;;;33.00;33.41;99078.19;7396264;19;20018;-80
2023/03/29 03:57:38;;;;;;;3.20;1.15;;;;;;;32.53;33.59;99073.09;7393273;19;20778;-80
2023/03/29 04:00:17;;;;;;;3.65;1.38;;;;;;;32.46;33.77;99079.97;7393500;19;20014;-80
2023/03/29 04:02:46;;;;;;;2.13;1.95;;;;;;;32.45;34.09;99078.47;7394245;19;20391;-80
2023/03/29 04:05:14;;;;;;;4.57;1.15;;;;;;;32.60;33.45;99069.13;7393559;19;20018;-80
2023/03/29 04:07:41;;;;;;;4.13;0.77;;;;;;;32.38;34.05;99068.03;7394169;19;20010;-80
2023/03/29 04:10:40;;;;;;;0.75;0.60;;;;;;;32.05;34.33;99059.94;7392285;19;20459;-80
2023/03/29 04:13:17;;;;;;;3.38;1.48;;;;;;;32.61;33.54;99059.06;7396381;19;20026;-80
2023/03/29 04:16:02;;;;;;;2.30;0.75;;;;;;;32.68;33.81;99057.22;7395714;19;20011;-80
2023/03/29 04:18:29;;;;;;;1.50;0.88;;;;;;;32.59;33.83;99047.44;7393088;19;20010;-80
2023/03/29 04:20:58;;;;;;;6.90;1.30;;;;;;;32.69;33.67;99053.69;7395042;19;20036;-80
2023/03/29 04:23:25;;;;;;;3.05;1.45;;;;;;;32.59;33.97;99046.69;7393869;19;20018;-80
2023/03/29 04:25:58;;;;;;;1.92;0.98;;;;;;;32.26;33.92;99055.91;7392348;19;20625;-80
2023/03/29 04:28:43;;;;;;;;;;;;;;;32.85;33.70;99051.53;7394159;19;20010;-80
2023/03/29 04:31:14;;;;;;;2.10;0.85;;;;;;;32.78;33.55;99041.13;7391386;19;19919;-80
2023/03/29 04:34:06;;;;;;;3.13;1.40;;;;;;;33.08;33.20;99038.91;7395170;19;20010;-80
2023/03/29 04:36:32;;;;;;;3.28;1.48;;;;;;;33.13;33.57;99036.94;7393230;19;20024;-80
2023/03/29 04:39:00;;;;;;;3.03;1.98;;;;;;;33.27;32.51;99040.44;7395956;19;20011;-80
2023/03/29 04:41:27;;;;;;;0.70;0.55;;;;;;;33.56;32.56;99043.94;7391182;19;20015;-80
2023/03/29 04:43:54;;;;;;;1.05;0.77;;;;;;;33.67;32.48;99044.34;7392744;19;20039;-80
2023/03/29 04:46:26;;;;;;;2.45;0.82;;;;;;;33.46;32.74;99037.69;7392848;19;20031;-80
2023/03/29 04:49:11;;;;;;;0.88;0.70;;;;;;;33.32;32.74;99045.75;7393531;19;20007;-80
2023/03/29 04:51:41;;;;;;;3.20;0.40;;;;;;;33.18;33.02;99050.16;7391248;19;20014;-80
2023/03/29 04:54:08;;;;;;;2.92;1.17;;;;;;;33.40;32.83;99056.88;7393557;19;20096;-80
2023/03/29 04:56:55;;;;;;;4.45;1.25;;;;;;;33.71;32.39;99059.72;7391376;19;20361;-80
2023/03/29 04:59:47;;;;;;;1.50;1.02;;;;;;;32.99;33.69;99068.78;7390223;19;20014;-80
2023/03/29 05:02:23;;;;;;;2.92;1.55;;;;;;;33.19;33.05;99063.16;7390584;19;20018;-80
2023/03/29 05:04:50;;;;;;;1.85;0.52;;;;;;;32.69;33.31;99062.34;7393540;19;20073;-80
2023/03/29 05:07:18;;;;;;;0.77;0.75;;;;;;;32.56;33.72;99066.03;7393733;19;20010;-80
2023/03/29 05:09:46;;;;;;;0.40;0.40;;;;;;;32.62;33.49;99057.66;7391095;19;20347;-80
2023/03/29 05:12:12;;;;;;;5.13;0.57;;;;;;;32.59;33.58;99067.63;7389320;19;20504;-80
2023/03/29 05:14:57;;;;;;;1.45;0.70;;;;;;;32.41;33.84;99065.97;7395473;19;20014;-80
2023/03/29 05:17:26;;;;;;;1.00;0.77;;;;;;;32.38;34.31;99061.53;7394019;19;20022;-80
2023/03/29 05:19:53;;;;;;;2.03;1.08;;;;;;;32.39;34.35;99057.25;7390877;19;20031;-80
2023/03/29 05:22:20;;;;;;;1.70;0.95;;;;;;;32.39;34.08;99058.00;7390875;19;20014;-77
2023/03/29 05:24:47;;;;;;;1.38;0.90;;;;;;;32.54;34.11;99045.00;7393119;19;20034;-78
2023/03/29 05:27:16;;;;;;;3.42;1.60;;;;;;;32.30;34.37;99043.81;7390681;19;20035;-78
2023/03/29 05:29:47;;;;;;;1.13;0.95;;;;;;;32.21;34.41;99031.16;7390311;19;20021;-78
2023/03/29 05:32:23;;;;;;;1.67;0.85;;;;;;;33.29;33.32;99028.97;7388812;19;20015;-77
2023/03/29 05:34:50;;;;;;;1.10;0.43;;;;;;;31.86;34.32;99036.63;7392704;19;20408;-78
2023/03/29 05:37:16;;;;;;;0.88;0.85;;;;;;;32.35;34.30;99034.75;7390077;19;20019;-78
2023/03/29 05:39:54;;;;;;;2.28;0.80;;;;;;;32.53;34.05;99026.97;7390142;19;20022;-78
2023/03/29 05:42:26;;;;;;;1.40;0.98;;;;;;;32.14;34.60;99023.63;7389907;19;20010;-78
2023/03/29 05:44:56;;;;;;;3.47;1.25;;;;;;;32.42;34.54;99024.25;7393391;19;20019;-78
2023/03/29 05:47:22;;;;;;;1.85;0.55;;;;;;;32.54;34.38;99028.47;7393855;19;20026;-77
2023/03/29 05:49:50;;;;;;;3.78;1.77;;;;;;;33.21;33.80;99017.81;7391011;19;20014;-77
2023/03/29 05:52:20;;;;;;;0.68;0.38;;;;;;;33.47;33.56;99009.56;7390324;19;20014;-77
2023/03/29 05:54:46;;;;;;;1.95;1.13;;;;;;;34.02;32.74;99018.41;7393365;19;20045;-77
2023/03/29 05:57:12;;;;;;;1.33;0.63;;;;;;;34.61;32.39;99021.50;7389908;19;20015;-77
2023/03/29 05:59:41;;;;;;;18.25;2.45;;;;;;;34.34;32.42;99008.88;7389785;19;20028;-77
2023/03/29 06:02:09;;;;;;;6.03;1.20;;;;;;;34.16;32.52;98993.69;7393703;19;20013;-77
2023/03/29 06:04:40;;;;;;;3.95;1.15;;;;;;;34.23;32.68;99012.78;7391877;19;20048;-77
2023/03/29 06:07:22;;;;;;;2.42;0.95;;;;;;;34.21;32.41;99001.13;7394117;19;20042;-77
2023/03/29 06:10:19;;;;;;;2.22;1.52;;;;;;;34.22;32.20;98999.72;7392998;19;20537;-77
2023/03/29 06:12:50;;;;;;;2.90;0.68;;;;;;;34.18;32.30;98993.03;7392938;19;20006;-77
2023/03/29 06:15:21;;;;;;;0.70;0.70;;;;;;;34.21;32.03;98971.47;7391208;19;20925;-77
2023/03/29 06:17:54;;;;;;;1.48;0.73;;;;;;;27.66;38.19;98996.31;7392939;19;20018;-78
2023/03/29 06:20:20;;;;;;;5.18;1.30;;;;;;;26.79;40.71;98992.56;7388453;19;20022;-77
2023/03/29 06:22:52;;;;;;;1.48;0.68;;;;;;;30.34;39.24;98990.50;7387982;19;20019;-78
2023/03/29 06:25:18;;;;;;;2.30;0.93;;;;;;;31.88;36.38;98987.78;7386890;19;20015;-77
2023/03/29 06:27:47;;;;;;;2.50;1.38;;;;;;;32.68;35.24;98988.00;7393328;19;20073;-78
2023/03/29 06:30:15;;;;;;;4.10;1.42;;;;;;;33.08;35.15;98977.53;7394513;19;20059;-78
2023/03/29 06:32:45;;;;;;;2.13;1.33;;;;;;;33.27;34.20;98980.56;7392681;19;20015;-78
2023/03/29 06:35:34;;;;;;;4.85;1.23;;;;;;;33.18;34.41;98989.53;7390144;19;20026;-79
2023/03/29 06:38:06;;;;;;;7.40;2.42;;;;;;;33.19;34.50;98991.00;7390550;19;20014;-79
2023/03/29 06:41:11;;;;;;;2.08;0.98;;;;;;;33.39;34.38;98977.47;7386323;19;20010;-79
2023/03/29 06:44:09;;;;;;;4.95;0.52;;;;;;;33.32;34.16;98969.94;7387610;19;20010;-79
2023/03/29 06:46:45;;;;;;;0.65;0.60;;;;;;;33.56;34.15;98976.75;7389808;19;20360;-79
2023/03/29 06:49:11;;;;;;;6.03;1.88;;;;;;;33.49;33.99;98989.44;7390643;19;20014;-78
2023/03/29 06:52:06;;;;;;;4.43;0.82;;;;;;;33.47;33.99;98969.13;7384097;19;20015;-79
2023/03/29 06:54:33;;;;;;;6.75;1.23;;;;;;;33.38;34.21;98973.06;7392120;19;20014;-78
2023/03/29 06:57:04;;;;;;;1.42;1.20;;;;;;;33.42;33.92;98967.47;7388249;19;20006;-79
2023/03/29 06:59:33;;;;;;;4.55;2.05;;;;;;;33.72;33.65;98970.91;7389211;19;20089;-79
2023/03/29 07:02:34;;;;;;;1.65;0.85;;;;;;;33.71;33.60;98961.50;7388133;19;20021;-79
2023/03/29 07:05:12;;;;;;;3.75;0.45;;;;;;;33.67;33.48;98957.72;7386000;19;20010;-79
2023/03/29 07:10:32;;;;;;;2.30;1.20;;;;;;;34.31;32.94;98954.50;7394787;19;20397;-79
2023/03/29 07:13:17;;;;;;;13.00;1.80;;;;;;;34.31;32.93;98955.25;7397275;19;20105;-78
2023/03/29 07:15:44;;;;;;;2.20;0.98;;;;;;;34.19;32.80;98954.06;7395199;19;20014;-79
2023/03/29 07:18:33;;;;;;;2.13;1.30;;;;;;;34.02;33.26;98960.63;7394872;19;20038;-79
2023/03/29 07:21:00;;;;;;;3.85;1.33;;;;;;;33.73;33.19;98961.59;7395338;19;20377;-79
2023/03/29 07:23:26;;;;;;;2.67;1.02;;;;;;;33.49;33.49;98949.75;7396553;19;20022;-80
2023/03/29 07:25:52;;;;;;;2.20;2.00;;;;;;;33.63;33.44;98964.06;7394557;19;20106;-79
2023/03/29 07:28:19;;;;;;;1.02;0.93;;;;;;;33.79;33.25;98961.06;7394866;19;20022;-79
2023/03/29 07:30:45;;;;;;;1.67;0.93;;;;;;;33.99;33.11;98953.97;7393940;19;20011;-79
2023/03/29 07:33:17;;;;;;;0.88;0.82;;;;;;;34.26;33.00;98950.72;7395236;19;20356;-79
2023/03/29 07:35:56;;;;;;;3.80;1.48;;;;;;;34.13;32.75;98963.22;7393833;19;20007;-79
2023/03/29 07:38:22;;;;;;;2.78;1.15;;;;;;;33.92;33.32;98951.50;7396796;19;20048;-79
2023/03/29 07:40:56;;;;;;;0.90;0.57;;;;;;;33.94;33.19;98937.88;7393580;19;20039;-79
2023/03/29 07:44:07;;;;;;;5.80;1.52;;;;;;;34.09;32.73;98945.72;7395733;19;20015;-79
2023/03/29 07:46:35;;;;;;;1.02;0.80;;;;;;;33.81;32.87;98920.75;7396354;19;20014;-79
2023/03/29 07:49:03;;;;;;;2.50;1.65;;;;;;;33.63;33.37;98914.22;7393686;19;20483;-79
2023/03/29 07:51:30;;;;;;;6.38;0.98;;;;;;;20.91;56.90;98948.44;7392902;19;20022;-78
2023/03/29 07:54:05;;;;;;;4.63;1.85;;;;;;;17.24;100.00;98958.47;7395156;19;20031;-79
2023/03/29 07:56:48;;;;;;;7.40;1.00;;;;;;;16.20;100.00;98943.00;7394057;19;20014;-79
2023/03/29 07:59:28;;;;;;;2.83;1.85;;;;;;;16.06;100.00;98952.69;7392913;19;20048;-78
2023/03/29 08:02:06;;;;;;;3.80;1.40;;;;;;;15.75;100.00;98950.59;7393496;19;20457;-79
2023/03/29 08:04:44;;;;;;;6.13;2.13;;;;;;;20.70;100.00;98936.59;7395157;19;20018;-78
2023/03/29 08:07:20;;;;;;;3.17;1.73;;;;;;;30.77;51.85;98933.16;7395185;19;20576;-78
2023/03/29 08:09:52;;;;;;;3.45;1.30;;;;;;;32.61;44.30;98914.91;7392980;19;20633;-79
2023/03/29 08:12:22;;;;;;;3.22;1.27;;;;;;;33.21;40.89;98910.28;7390782;19;20818;-79
2023/03/29 08:14:49;;;;;;;1.98;0.80;;;;;;;33.42;39.33;98915.50;7394106;19;20014;-79
2023/03/29 08:17:21;;;;;;;8.80;2.20;;;;;;;33.85;38.03;98904.28;7395289;19;20456;-79
2023/03/29 08:19:49;;;;;;;3.92;0.70;;;;;;;34.05;37.29;98913.78;7390283;19;20020;-78
2023/03/29 08:22:19;;;;;;;1.10;1.00;;;;;;;34.10;36.50;98906.75;7392704;19;20019;-79
2023/03/29 08:25:21;;;;;;;10.98;1.40;;;;;;;33.87;36.34;98898.59;7388274;19;20105;-79
2023/03/29 08:27:51;;;;;;;2.90;1.27;;;;;;;34.21;35.24;98893.44;7392546;19;20084;-79
2023/03/29 08:30:28;;;;;;;7.07;1.67;;;;;;;34.26;34.90;98906.63;7392388;19;20014;-79
2023/03/29 08:32:56;;;;;;;3.30;1.88;;;;;;;33.83;35.40;98912.88;7393303;19;20021;-79
2023/03/29 08:35:22;;;;;;;11.18;2.08;;;;;;;33.87;34.97;98901.50;7392171;19;20373;-79
2023/03/29 08:38:03;;;;;;;19.65;1.33;;;;;;;33.49;35.86;98894.13;7393833;19;20017;-78
2023/03/29 08:40:29;;;;;;;7.18;1.42;;;;;;;33.07;35.91;98892.38;7392743;19;20025;-79
2023/03/29 08:43:30;;;;;;;4.50;0.82;;;;;;;33.00;36.37;98893.53;7393796;19;20442;-78
2023/03/29 08:46:35;;;;;;;4.97;1.48;;;;;;;33.04;36.16;98890.81;7393192;19;20010;-79
2023/03/29 08:49:14;;;;;;;0.20;0.17;;;;;;;33.57;35.57;98880.03;7396571;19;20014;-79
2023/03/29 08:51:49;;;;;;;6.95;2.03;;;;;;;33.86;35.24;98874.00;7391451;19;20388;-78
2023/03/29 08:54:27;;;;;;;35.20;2.22;;;;;;;33.99;35.08;98867.28;7393607;19;20015;-78
2023/03/29 08:57:20;;;;;;;0.40;0.40;;;;;;;34.14;34.72;98849.09;7393396;19;20028;-78
2023/03/29 08:59:54;;;;;;;0.95;0.93;;;;;;;35.16;33.67;98833.94;7391202;19;20010;-78
2023/03/29 09:02:25;;;;;;;1.20;0.50;;;;;;;34.92;33.46;98830.22;7391803;19;20025;-78
2023/03/29 09:05:01;;;;;;;1.27;1.10;;;;;;;34.83;33.23;98828.44;7394227;19;20297;-79
2023/03/29 09:07:38;;;;;;;5.68;1.25;;;;;;;34.99;32.81;98823.22;7391463;19;20081;-78
2023/03/29 09:10:04;;;;;;;2.40;1.88;;;;;;;34.88;32.63;98818.50;7390671;19;20477;-79
2023/03/29 09:13:03;;;;;;;11.27;1.05;;;;;;;34.81;33.12;98826.22;7387479;19;20358;-79
2023/03/29 09:15:39;;;;;;;1.75;0.38;;;;;;;33.72;34.20;98832.28;7391038;19;20018;-78
2023/03/29 09:18:50;;;;;;;0.88;0.50;;;;;;;33.86;34.32;98824.13;7389462;19;20010;-78
2023/03/29 09:21:28;;;;;;;0.95;0.65;;;;;;;33.60;33.94;98815.19;7391328;19;20018;-78
2023/03/29 09:24:23;;;;;;;4.53;0.65;;;;;;;33.53;34.33;98805.56;7391820;19;20014;-78
2023/03/29 09:27:26;;;;;;;0.93;0.52;;;;;;;33.50;34.15;98806.13;7390378;19;20018;-78
2023/03/29 09:30:11;;;;;;;0.50;0.50;;;;;;;33.49;34.23;98810.41;7389669;19;20543;-78
2023/03/29 09:44:30;;;;;;;0.65;0.65;;;;;;;34.04;33.46;98788.03;7392571;19;20351;-81
2023/03/29 09:47:33;;;;;;;2.55;0.38;;;;;;;34.02;33.66;98796.63;7390423;19;20453;-81
2023/03/29 09:50:10;;;;;;;0.63;0.43;;;;;;;34.09;33.51;98806.28;7389199;19;20014;-81
2023/03/29 09:52:36;;;;;;;0.55;0.43;;;;;;;33.88;33.51;98804.72;7388204;19;20501;-81
2023/03/29 09:55:13;;;;;;;4.22;0.60;;;;;;;34.07;33.39;98797.50;7388653;19;20029;-81
2023/03/29 09:57:57;;;;;;;2.20;0.30;;;;;;;34.08;33.45;98799.00;7390031;19;20015;-80
2023/03/29 10:00:24;;;;;;;;;;;;;;;34.28;33.10;98786.00;7390274;19;20019;-81
2023/03/29 10:02:56;;;;;;;0.30;0.30;;;;;;;34.14;33.54;98784.75;7389449;19;20381;-80
2023/03/29 10:05:36;;;;;;;2.67;1.00;;;;;;;33.95;33.73;98776.81;7389702;19;20021;-81
2023/03/29 10:08:18;;;;;;;0.55;0.55;;;;;;;30.59;36.25;98774.09;7390289;19;20015;-82
2023/03/29 10:10:45;;;;;;;2.08;0.57;;;;;;;32.82;36.02;98755.75;7389111;19;20031;-81
2023/03/29 10:13:19;;;;;;;1.73;0.40;;;;;;;34.00;34.41;98764.72;7389225;19;20017;-81
2023/03/29 10:15:57;;;;;;;3.42;1.40;;;;;;;33.90;33.96;98752.81;7391296;19;20476;-81
2023/03/29 10:18:25;;;;;;;0.30;0.20;;;;;;;34.06;33.99;98750.53;7391493;19;20026;-83
2023/03/29 10:20:58;;;;;;;1.13;0.30;;;;;;;34.05;33.82;98749.03;7390602;19;20014;-82
2023/03/29 10:23:30;;;;;;;2.00;0.57;;;;;;;34.21;34.17;98740.22;7388628;19;20014;-81
2023/03/29 10:25:56;;;;;;;0.32;0.13;;;;;;;34.24;33.81;98741.78;7390616;19;20038;-81
2023/03/29 10:28:25;;;;;;;5.88;0.60;;;;;;;34.30;34.20;98734.06;7390028;19;20030;-82
2023/03/29 10:30:54;;;;;;;0.85;0.47;;;;;;;34.55;34.12;98729.88;7390524;19;20125;-82
2023/03/29 10:33:23;;;;;;;1.67;0.65;;;;;;;33.48;35.25;98725.19;7391681;19;20025;-79
2023/03/29 10:35:50;;;;;;;2.05;0.65;;;;;;;34.53;34.33;98731.94;7390120;19;20018;-87
2023/03/29 10:38:19;;;;;;;5.15;0.50;;;;;;;34.64;34.10;98742.44;7393733;19;20346;-87
2023/03/29 10:40:50;;;;;;;1.15;0.30;;;;;;;33.93;35.07;98733.38;7391974;19;20018;-87
2023/03/29 10:43:16;;;;;;;0.15;0.15;;;;;;;34.38;34.40;98744.41;7394487;19;20461;-86
2023/03/29 10:45:46;;;;;;;4.40;1.35;;;;;;;34.69;34.42;98727.47;7395655;19;20476;-89
2023/03/29 10:48:14;;;;;;;7.88;0.98;;;;;;;34.76;34.38;98719.72;7404298;19;20085;-89
2023/03/29 10:50:41;;;;;;;1.10;0.57;;;;;;;34.47;34.30;98723.78;7397125;19;20024;-88
2023/03/29 10:53:30;;;;;;;1.27;0.55;;;;;;;33.35;35.78;98726.84;7398297;19;20014;-89
2023/03/29 10:56:11;;;;;;;1.42;0.60;;;;;;;34.01;34.91;98725.78;7399479;19;20026;-89
2023/03/29 10:58:55;;;;;;;2.17;0.40;;;;;;;33.78;35.16;98709.03;7397599;19;20010;-89
2023/03/29 11:01:45;;;;;;;0.32;0.32;;;;;;;34.14;34.99;98710.34;7396469;19;20018;-87
2023/03/29 11:04:29;;;;;;;0.22;0.22;;;;;;;34.29;34.99;98714.47;7399121;19;20079;-87
2023/03/29 11:07:30;;;;;;;1.45;0.50;;;;;;;34.47;35.04;98711.47;7397823;19;20477;-89
2023/03/29 11:10:25;;;;;;;3.53;0.63;;;;;;;34.58;34.92;98713.31;7397459;19;20010;-89
2023/03/29 11:13:07;;;;;;;2.00;0.57;;;;;;;33.69;35.96;98704.34;7397414;19;20081;-88
2023/03/29 11:16:01;;;;;;;1.20;0.55;;;;;;;34.85;34.93;98684.56;7396670;19;20014;-89
2023/03/29 11:18:33;;;;;;;10.85;0.57;;;;;;;34.88;35.05;98688.28;7397548;19;20031;-89
2023/03/29 11:21:25;;;;;;;0.82;0.70;;;;;;;35.04;35.08;98683.03;7396821;19;20046;-89
2023/03/29 11:24:36;;;;;;;1.00;0.90;;;;;;;35.31;35.01;98676.63;7398688;19;20014;-89
2023/03/29 11:27:11;;;;;;;;;;;;;;;35.50;34.57;98672.88;7398799;19;20457;-89
2023/03/29 11:30:02;;;;;;;3.95;1.10;;;;;;;35.06;34.73;98671.53;7397107;19;19917;-89
2023/03/29 11:32:40;;;;;;;1.48;0.80;;;;;;;34.70;35.53;98670.31;7393677;19;20030;-88
2023/03/29 11:35:26;;;;;;;2.92;0.43;;;;;;;34.86;35.25;98665.06;7399082;19;20011;-88
2023/03/29 11:37:59;;;;;;;2.22;0.57;;;;;;;34.96;35.27;98659.59;7398891;19;20040;-88
2023/03/29 11:40:47;;;;;;;0.77;0.32;;;;;;;35.48;34.59;98646.75;7397989;19;20018;-89
2023/03/29 11:43:24;;;;;;;0.50;0.10;;;;;;;35.42;34.23;98649.44;7396662;19;20027;-88
2023/03/29 11:46:01;;;;;;;0.77;0.10;;;;;;;35.17;34.46;98646.50;7397427;19;20018;-87
2023/03/29 11:48:33;;;;;;;1.65;0.40;;;;;;;35.11;34.41;98632.59;7395882;19;20373;-87
2023/03/29 11:51:12;;;;;;;0.60;0.32;;;;;;;35.19;35.01;98627.06;7395915;19;20457;-88
2023/03/29 11:54:20;;;;;;;0.40;0.25;;;;;;;35.23;34.86;98630.06;7396711;19;20092;-89
2023/03/29 11:56:51;;;;;;;3.30;0.30;;;;;;;35.21;34.84;98627.09;7396965;19;20038;-88
2023/03/29 11:59:27;;;;;;;0.22;0.20;;;;;;;35.11;34.32;98637.66;7396518;19;20015;-88
2023/03/29 12:02:00;;;;;;;0.43;0.35;;;;;;;30.94;39.28;98642.19;7395935;19;20030;-88
2023/03/29 12:04:37;;;;;;;0.63;0.43;;;;;;;30.92;40.78;98624.09;7398868;19;20022;-89
2023/03/29 12:07:28;;;;;;;1.60;0.75;;;;;;;32.60;38.50;98622.16;7395090;19;20016;-88
2023/03/29 12:10:00;;;;;;;4.88;0.60;;;;;;;34.43;35.82;98624.59;7397605;19;20014;-88
2023/03/29 12:12:54;;;;;;;0.30;0.30;;;;;;;34.90;35.43;98616.00;7393925;19;20043;-88
2023/03/29 12:15:28;;;;;;;2.33;0.40;;;;;;;34.81;35.49;98622.94;7394183;19;20018;-89
2023/03/29 12:18:00;;;;;;;0.68;0.32;;;;;;;35.08;35.33;98615.84;7399307;19;20093;-89
2023/03/29 12:20:35;;;;;;;0.35;0.35;;;;;;;35.12;35.12;98619.59;7395440;19;20520;-87
2023/03/29 12:23:06;;;;;;;1.55;0.80;;;;;;;35.11;35.33;98620.28;7393545;19;20019;-88